Bishop International Airport
KFNT : now visible

Airfield :











YOU CAN JOIN US ON...

 
LOGIN :

Register | Disclaimer

   EN    FR    IT 

 









Legend :    VFR   Marginal VFR   IFR   Intensive IFR   Very Intensive IFR
Visi :
Ceiling :
>= 8 km
>= 3000ft
5 to 8 km
1000 to 3000 ft
1500m to 5 km
500 to 1000 ft
800 to 1500m
200 to 500 ft
< 800m
< 200 ft
Symbols :   Thunderstorms  Fog  Heavy snow  Heavy precipitations  Wind > 20 kt






- Airport Elevation : 782 ft
- IATA code : FNT


KFNT - Bishop International

CURRENT METAR :
  • 231453Z 02011KT 3SM -SN OVC047 M09/M13 A2988 RMK AO2 SLP134 P0001 60002 T10941128 51007

EXPIRED METARs :
  • 231445Z 02010KT 3SM -SN OVC045 M09/M13 A2988 RMK AO2 P0001 T10891128
  • 231400Z 02009KT 2SM -SN BKN041 OVC050 M09/M12 A2988 RMK AO2 P0001 T10891117
  • 231353Z 03009KT 1 3/4SM -SN BR BKN043 OVC050 M09/M12 A2988 RMK AO2 SLP130 P0000 T10941117
  • 231335Z 03010KT 2 1/2SM -SN BR BKN039 OVC055 M09/M12 A2987 RMK AO2 P0000 T10941117
  • 231322Z 03008KT 1 1/2SM -SN BR OVC031 M09/M12 A2987 RMK AO2 P0000 T10941117
  • 231301Z 03012KT 1 3/4SM -SN BR FEW011 OVC027 M09/M12 A2987 RMK AO2 P0000 T10941117
  • 231244Z 04012KT 3SM -SN FEW012 OVC031 M09/M12 A2987 RMK AO2 P0001 T10891117

TAF KFNT
Valid from the 23 at 14:00 until the 24 at 12:00 UTC


231413Z 2314/2412 02008KT 2SM -SN OVC040
FM231500 35008KT P6SM SCT028 OVC040
FM231700 34008KT P6SM BKN040
FM240000 VRB03KT P6SM BKN045 BKN200
FM240300 21005KT P6SM BKN045 BKN150
KZOB FIR / North America



MET'MAP, your aeronautical weather chart ! - Copyright ORBIFLY December 2007 - Disclaimer

ORBIFLY MET'MAP TEAM :

Programming & Development : Alexandra Zaïnal
Concept & original design : Baudouin d'Aumeries
Assistance for programming : Marc-Olivier Méhu
Technical & hardware support : Manuel Goepfert

Contact : metmap@orbifly.com




SOURCES & CREDITS :

   NOAA       Earth
Advisory